Ana Sayfa
METAR-TAF:

METAR-TAF

Havaalanları :

Cloncurry, Avustralya

Enlem: 20-40-07S, Boylam: 140-30-16E, yükseklik: 188 m

Güncel hava durumu gözlemi

Rapor saat 09:00 UTC de 46 dakika önce yapıldı.
Rüzgar güneydan 8 kt
Sıcaklık 18°C
Nem 26%
Basınç 1019 hPa
Görüş mesafesi 10 km veya daha fazla

METAR: YCCY 180900Z AUTO 19008KT 9999 // NCD 18/M02 Q1019

Saat: 19:46 (09:46 UTC)


TAF: eksik

4.000'den fazla havaalanı için hava durumu gözlemleri ve tahminleri (METAR ve TAF raporları).

Kullanılabilir istasyonlar harita üzerinde sarı ve kırmızı noktalarla gösterilir.

İstasyonun adını görmek için fareyi noktanın üzerinde gezdirin.

Sonrasında hava gözlem ve tahminlerini görmek için tıklayın.

Haritayı değiştirmek için: yaklaştırmak için siyah artı işaretli yeşil düğmeye ve uzaklaştırmak için de eksi işaretli düğmeye hızla tıklayın; bitişik haritalar için yeşil okları kullanın.


METAR-TAF: